createdAt,value
2023-04-02T04:02:44.990Z,3.72
2023-04-02T04:06:52.347Z,3.38
2023-04-02T04:10:58.716Z,3.51
2023-04-02T04:15:07.648Z,3.43
2023-04-02T04:19:18.173Z,3.45
2023-04-02T04:23:31.243Z,3.45
2023-04-02T04:27:44.752Z,3.51
2023-04-02T04:31:49.751Z,3.61
2023-04-02T04:35:59.778Z,3.65
2023-04-02T04:40:17.299Z,3.78
2023-04-02T04:44:24.105Z,3.76
2023-04-02T04:48:37.306Z,3.81
2023-04-02T04:52:44.175Z,3.79
2023-04-02T04:56:52.186Z,3.81
2023-04-02T05:01:03.361Z,3.96
2023-04-02T05:05:18.898Z,3.97
2023-04-02T05:09:30.407Z,3.79
2023-04-02T05:13:40.276Z,3.76
2023-04-02T05:17:49.953Z,3.75
2023-04-02T05:21:59.504Z,3.75
2023-04-02T05:26:09.277Z,3.93
2023-04-02T05:30:33.711Z,3.73
2023-04-02T05:34:39.310Z,3.66
2023-04-02T05:38:47.570Z,3.59
2023-04-02T05:42:57.792Z,3.63
2023-04-02T05:47:05.975Z,3.84
2023-04-02T05:51:13.137Z,3.81
2023-04-02T05:55:31.848Z,3.88
2023-04-02T05:59:40.509Z,3.92
2023-04-02T06:03:51.318Z,4.03
2023-04-02T06:07:59.745Z,3.87
2023-04-02T06:12:13.502Z,3.92
2023-04-02T06:16:18.328Z,3.81
2023-04-02T06:20:21.863Z,3.60
2023-04-02T06:24:27.079Z,3.80
2023-04-02T06:28:37.096Z,3.83
2023-04-02T06:32:41.373Z,3.74
2023-04-02T06:36:48.139Z,3.89
2023-04-02T06:40:53.931Z,3.99
2023-04-02T06:45:06.074Z,4.03
2023-04-02T06:49:34.288Z,3.65
2023-04-02T06:53:43.083Z,3.58
2023-04-02T06:57:49.338Z,3.73
2023-04-02T07:01:57.217Z,3.93
2023-04-02T07:06:03.578Z,4.22
2023-04-02T07:10:09.140Z,4.45
2023-04-02T07:14:13.395Z,4.25
2023-04-02T07:18:24.480Z,4.17
2023-04-02T07:22:28.449Z,4.06
2023-04-02T07:26:34.729Z,4.28
2023-04-02T07:30:37.385Z,4.33
2023-04-02T07:34:40.616Z,4.43
2023-04-02T07:38:44.838Z,4.39
2023-04-02T07:42:47.640Z,4.12
2023-04-02T07:46:50.326Z,3.93
2023-04-02T07:50:52.927Z,3.79
2023-04-02T07:54:56.720Z,3.81
2023-04-02T07:58:59.216Z,3.96
2023-04-02T08:03:01.756Z,4.06
2023-04-02T08:07:04.456Z,4.19
2023-04-02T08:11:08.899Z,4.41
2023-04-02T08:15:16.018Z,4.13
2023-04-02T08:19:19.516Z,4.46
2023-04-02T08:23:22.448Z,4.74
2023-04-02T08:27:27.219Z,4.94
2023-04-02T08:31:30.261Z,4.97
2023-04-02T08:35:33.218Z,4.94
2023-04-02T08:39:35.749Z,4.87
2023-04-02T08:43:57.275Z,5.08
2023-04-02T08:48:03.290Z,4.93
2023-04-02T08:52:06.086Z,5.26
2023-04-02T08:56:17.508Z,5.30
2023-04-02T09:00:29.123Z,4.99
2023-04-02T09:04:32.804Z,4.99
2023-04-02T09:08:35.711Z,5.49
2023-04-02T09:12:39.613Z,5.59
2023-04-02T09:16:47.346Z,5.60
2023-04-02T09:20:50.381Z,5.06
2023-04-02T09:24:54.003Z,5.33
2023-04-02T09:29:03.278Z,5.17
2023-04-02T09:33:09.275Z,5.52
2023-04-02T09:37:17.260Z,5.67
2023-04-02T09:41:21.080Z,5.28
2023-04-02T09:45:25.652Z,4.94
2023-04-02T09:49:31.769Z,4.99
2023-04-02T09:53:36.895Z,5.38
2023-04-02T09:57:39.453Z,5.97
2023-04-02T10:01:44.601Z,5.89
2023-04-02T10:05:48.718Z,6.09
2023-04-02T10:09:58.890Z,5.52
2023-04-02T10:14:04.717Z,5.52
2023-04-02T10:18:13.873Z,5.90
2023-04-02T10:22:19.791Z,5.81
2023-04-02T10:26:36.956Z,6.08
2023-04-02T10:30:55.533Z,5.98
2023-04-02T10:35:02.736Z,5.70
2023-04-02T10:39:13.497Z,6.22
2023-04-02T10:43:44.740Z,6.28
2023-04-02T10:47:53.128Z,6.57
2023-04-02T10:52:00.796Z,5.93
2023-04-02T10:56:10.908Z,6.43
2023-04-02T11:00:23.328Z,6.56
2023-04-02T11:04:30.320Z,6.61
2023-04-02T11:08:41.170Z,6.61
2023-04-02T11:12:52.640Z,7.03
2023-04-02T11:16:58.768Z,7.17
2023-04-02T11:21:04.029Z,7.02
2023-04-02T11:25:22.962Z,6.79
2023-04-02T11:29:29.135Z,6.60
2023-04-02T11:33:45.497Z,6.70
2023-04-02T11:37:49.592Z,6.85
2023-04-02T11:42:04.953Z,6.61
2023-04-02T11:46:36.262Z,6.89
2023-04-02T11:50:40.903Z,6.96
2023-04-02T11:54:43.727Z,6.57
2023-04-02T11:59:00.998Z,6.43
2023-04-02T12:03:28.369Z,6.47
2023-04-02T12:07:55.927Z,6.28
2023-04-02T12:12:01.384Z,6.32
2023-04-02T12:16:04.294Z,6.29
2023-04-02T12:20:21.754Z,6.80
2023-04-02T12:24:31.091Z,6.97
2023-04-02T12:28:34.576Z,6.88
2023-04-02T12:32:37.004Z,7.17
2023-04-02T12:36:41.334Z,7.06
2023-04-02T12:40:52.709Z,7.22
2023-04-02T12:44:55.419Z,7.02
2023-04-02T12:49:04.921Z,7.34
2023-04-02T12:53:21.363Z,8.07
2023-04-02T12:57:33.471Z,7.28
2023-04-02T13:01:36.137Z,7.01
2023-04-02T13:05:41.373Z,7.57
2023-04-02T13:09:47.860Z,8.41
2023-04-02T13:13:51.144Z,8.90
2023-04-02T13:18:04.751Z,8.92
2023-04-02T13:22:22.116Z,8.46
2023-04-02T13:26:28.241Z,8.79
2023-04-02T13:30:31.101Z,8.53
2023-04-02T13:34:33.900Z,8.46
2023-04-02T13:38:36.432Z,8.43
2023-04-02T13:42:44.116Z,9.13
2023-04-02T13:46:46.769Z,8.85
2023-04-02T13:50:49.251Z,8.87
2023-04-02T13:54:55.519Z,9.34
2023-04-02T13:58:59.431Z,8.30
2023-04-02T14:03:08.360Z,8.00
2023-04-02T14:07:33.462Z,9.31
2023-04-02T14:11:48.537Z,10.30
2023-04-02T14:16:08.717Z,10.19
2023-04-02T14:20:24.470Z,9.45
2023-04-02T14:24:36.868Z,9.35
2023-04-02T14:28:57.334Z,8.76
2023-04-02T14:33:10.439Z,9.13
2023-04-02T14:37:18.850Z,10.52
2023-04-02T14:41:26.561Z,10.22
2023-04-02T14:45:44.494Z,9.29
2023-04-02T14:49:51.439Z,9.27
2023-04-02T14:54:01.197Z,9.36
2023-04-02T14:58:06.392Z,9.15
2023-04-02T15:02:17.861Z,9.24
2023-04-02T15:06:25.523Z,9.21
2023-04-02T15:10:31.486Z,8.78
2023-04-02T15:14:36.095Z,8.27
2023-04-02T15:18:38.576Z,8.30
2023-04-02T15:22:52.225Z,8.32
2023-04-02T15:27:00.119Z,8.72
2023-04-02T15:31:12.654Z,9.45
2023-04-02T15:35:23.829Z,9.42
2023-04-02T15:39:51.634Z,9.15
2023-04-02T15:44:00.157Z,8.72
2023-04-02T15:48:39.275Z,8.52
2023-04-02T15:52:54.180Z,8.43
2023-04-02T15:57:10.278Z,8.28
2023-04-02T16:01:19.636Z,7.99
2023-04-02T16:05:32.198Z,7.79
2023-04-02T16:09:45.944Z,7.88
2023-04-02T16:13:49.765Z,7.88
2023-04-02T16:17:59.383Z,8.10
2023-04-02T16:22:06.136Z,7.80
2023-04-02T16:26:22.026Z,7.72
2023-04-02T16:30:46.742Z,7.73
2023-04-02T16:35:12.956Z,7.61
2023-04-02T16:39:32.800Z,7.57
2023-04-02T16:43:44.161Z,7.52
2023-04-02T16:48:04.533Z,7.49
2023-04-02T16:52:23.612Z,7.58
2023-04-02T16:56:37.432Z,7.67
2023-04-02T17:00:47.102Z,7.57
2023-04-02T17:05:03.837Z,7.49
2023-04-02T17:09:15.451Z,7.50
2023-04-02T17:13:27.001Z,7.40
2023-04-02T17:17:29.570Z,7.18
2023-04-02T17:21:33.730Z,7.17
2023-04-02T17:25:40.662Z,7.03
2023-04-02T17:29:46.056Z,6.86
2023-04-02T17:33:48.576Z,6.91
2023-04-02T17:37:58.843Z,6.86
2023-04-02T17:42:11.064Z,6.86
2023-04-02T17:46:25.282Z,6.67
2023-04-02T17:50:46.058Z,6.71
2023-04-02T17:55:03.477Z,6.63
2023-04-02T17:59:21.689Z,6.55
2023-04-02T18:03:42.160Z,6.63
2023-04-02T18:07:54.169Z,6.59
2023-04-02T18:12:08.804Z,6.51
2023-04-02T18:16:44.121Z,6.55
2023-04-02T18:21:01.226Z,6.35
2023-04-02T18:25:28.796Z,6.41
2023-04-02T18:29:40.975Z,6.42
2023-04-02T18:34:07.050Z,6.35
2023-04-02T18:38:27.199Z,6.34
2023-04-02T18:42:44.717Z,6.33
2023-04-02T18:46:53.020Z,6.29
2023-04-02T18:50:55.767Z,6.21
2023-04-02T18:55:05.601Z,6.18
2023-04-02T18:59:22.657Z,6.06
2023-04-02T19:03:31.284Z,5.91
2023-04-02T19:07:40.238Z,5.91
2023-04-02T19:11:42.761Z,5.87
2023-04-02T19:15:59.013Z,5.87
2023-04-02T19:20:14.874Z,5.87
2023-04-02T19:24:31.382Z,5.82
2023-04-02T19:28:39.180Z,5.70
2023-04-02T19:32:52.136Z,5.73
2023-04-02T19:36:59.341Z,5.56
2023-04-02T19:41:08.115Z,5.60
2023-04-02T19:45:33.843Z,5.45
2023-04-02T19:49:38.295Z,5.42
2023-04-02T19:53:42.129Z,5.36
2023-04-02T19:57:44.648Z,5.45
2023-04-02T20:01:47.469Z,5.32
2023-04-02T20:05:50.423Z,5.31
2023-04-02T20:09:54.271Z,5.27
2023-04-02T20:13:56.743Z,5.07
2023-04-02T20:17:59.281Z,5.00
2023-04-02T20:22:01.829Z,4.97
2023-04-02T20:26:07.042Z,4.93
2023-04-02T20:30:10.062Z,4.79
2023-04-02T20:34:12.720Z,4.74
2023-04-02T20:38:15.624Z,4.68
2023-04-02T20:42:19.444Z,4.59
2023-04-02T20:46:22.799Z,4.52
2023-04-02T20:50:25.360Z,4.60
2023-04-02T20:54:27.859Z,4.48
2023-04-02T20:58:31.709Z,4.41
